This is the latest recevied weather packets stored in our database for station/object TG8AKV-17. If no packets are shown the sender has not sent any weather packets the latest 10 day(s).
| Time | Temp. | Humidity | Pressure | Rain* | Wind** | Luminosity | Snow |
|---|---|---|---|---|---|---|---|
| 1777843656 | 17.78° C | 83% | 1015 hPa | 0.51 mm | - | - | - |
| 1777843055 | 17.78° C | 84% | 1015 hPa | 0 mm | - | - | - |
| 1777842455 | 17.78° C | 85% | 1015 hPa | 0.51 mm | - | - | - |
| 1777841854 | 18.33° C | 81% | 1015 hPa | 0 mm | - | - | - |
| 1777841254 | 18.33° C | 79% | 1015 hPa | 0 mm | - | - | - |
| 1777840653 | 18.89° C | 75% | 1016 hPa | 0 mm | - | - | - |
| 1777840052 | 18.89° C | 75% | 1016 hPa | 0 mm | - | - | - |
| 1777839452 | 22.78° C | 53% | 1016 hPa | 0 mm | - | - | - |
| 1777838851 | 22.78° C | 53% | 1016 hPa | 0 mm | - | - | - |
| 1777838251 | 21.67° C | 55% | 1016 hPa | 0 mm | - | - | - |
| 1777837650 | 21.67° C | 55% | 1016 hPa | 0 mm | - | - | - |
| 1777837050 | 21.67° C | 54% | 1016 hPa | 0 mm | - | - | - |
| 1777836449 | 21.67° C | 53% | 1016 hPa | 0 mm | - | - | - |
| 1777835849 | 21.67° C | 52% | 1016 hPa | 0.25 mm | - | - | - |
| 1777835248 | 21.67° C | 51% | 1016 hPa | 0 mm | - | - | - |
| 1777834646 | 21.67° C | 50% | 1016 hPa | 0.25 mm | - | - | - |
| 1777834046 | 21.67° C | 53% | 1016 hPa | 0 mm | - | - | - |
| 1777833445 | 21.11° C | 57% | 1016 hPa | 0.25 mm | - | - | - |
| 1777832845 | 20.56° C | 68% | 1016 hPa | 0 mm | - | - | - |
| 1777832244 | 20.56° C | 69% | 1016 hPa | 0 mm | - | - | - |
| 1777831643 | 21.11° C | 62% | 1016 hPa | 0 mm | - | - | - |
| 1777831043 | 20.56° C | 64% | 1016 hPa | 0 mm | - | - | - |
| 1777830442 | 20° C | 72% | 1017 hPa | 0 mm | - | - | - |
| 1777829842 | 20° C | 70% | 1017 hPa | 0 mm | - | - | - |
| 1777829241 | 20° C | 70% | 1017 hPa | 0 mm | - | - | - |
* Rain latest hour (hover to see other rain measurements)
** Current wind speed in m/s (hover to see current wind gust speed)